
Sr Research Associate
| Date Time MST |
Temp °F |
RH % |
DewPt °F |
Wind mph |
Dir ° |
Gust mph |
Dir ° |
Press in Hg |
Solar W/m^2 |
Prec in |
|---|---|---|---|---|---|---|---|---|---|---|
| 2026-05-02 19:25 | 61.2 | 14.3 | 12.1 | 3.5 | 186 | 4.5 | 178 | 24.846 | 0.2 | 0.00 |
| 2026-05-02 19:20 | 61.5 | 14.4 | 12.5 | 3.7 | 165 | 5.0 | 183 | 24.845 | 0.3 | 0.00 |
| 2026-05-02 19:15 | 61.9 | 14.2 | 12.6 | 4.5 | 177 | 6.4 | 176 | 24.845 | 0.5 | 0.00 |
| 2026-05-02 19:10 | 62.3 | 14.4 | 13.1 | 5.2 | 180 | 6.9 | 183 | 24.844 | 1.0 | 0.00 |
| 2026-05-02 19:05 | 62.8 | 14.0 | 12.8 | 5.3 | 192 | 7.1 | 187 | 24.843 | 1.7 | 0.00 |
| 2026-05-02 19:00 | 63.2 | 13.5 | 12.3 | 4.3 | 197 | 6.7 | 184 | 24.845 | 2.8 | 0.00 |
| 2026-05-02 18:55 | 63.6 | 13.9 | 13.4 | 3.8 | 199 | 5.8 | 209 | 24.845 | 4.1 | 0.00 |
| 2026-05-02 18:50 | 64.0 | 13.5 | 12.9 | 4.3 | 211 | 6.2 | 196 | 24.843 | 5.7 | 0.00 |
| 2026-05-02 18:45 | 64.8 | 13.3 | 13.3 | 3.6 | 191 | 5.8 | 196 | 24.842 | 8.2 | 0.00 |
| 2026-05-02 18:40 | 65.9 | 11.8 | 11.5 | 4.1 | 186 | 5.7 | 163 | 24.841 | 11.3 | 0.00 |
| 2026-05-02 18:35 | 66.6 | 10.8 | 10.1 | 6.0 | 161 | 7.4 | 143 | 24.841 | 17.2 | 0.00 |
| 2026-05-02 18:30 | 67.0 | 10.6 | 9.9 | 5.9 | 154 | 8.3 | 152 | 24.841 | 31.5 | 0.00 |
| 2026-05-02 18:25 | 67.4 | 10.6 | 10.2 | 4.7 | 156 | 6.5 | 149 | 24.843 | 20.1 | 0.00 |
| 2026-05-02 18:20 | 68.1 | 10.5 | 10.6 | 4.8 | 160 | 7.1 | 165 | 24.847 | 55.0 | 0.00 |
| 2026-05-02 18:15 | 68.4 | 10.3 | 10.4 | 5.1 | 193 | 7.2 | 167 | 24.847 | 73.7 | 0.00 |
| 2026-05-02 18:10 | 68.5 | 10.2 | 10.1 | 5.2 | 177 | 7.7 | 167 | 24.847 | 62.1 | 0.00 |
| 2026-05-02 18:05 | 68.8 | 10.1 | 10.3 | 6.4 | 160 | 8.7 | 158 | 24.846 | 48.0 | 0.00 |
| 2026-05-02 18:00 | 69.3 | 10.1 | 10.6 | 7.3 | 157 | 9.6 | 158 | 24.847 | 130.7 | 0.00 |
| 2026-05-02 17:55 | 69.6 | 9.9 | 10.5 | 7.1 | 166 | 10.9 | 166 | 24.849 | 143.0 | 0.00 |
| 2026-05-02 17:50 | 69.7 | 9.6 | 9.7 | 7.7 | 156 | 10.0 | 163 | 24.852 | 160.9 | 0.00 |
| 2026-05-02 17:45 | 69.9 | 9.8 | 10.3 | 7.4 | 192 | 10.1 | 144 | 24.853 | 174.5 | 0.00 |
| 2026-05-02 17:40 | 70.2 | 9.2 | 9.2 | 6.8 | 146 | 9.5 | 152 | 24.853 | 188.7 | 0.00 |
| 2026-05-02 17:35 | 70.5 | 9.0 | 9.1 | 5.0 | 156 | 7.5 | 146 | 24.853 | 207.7 | 0.00 |
| 2026-05-02 17:30 | 70.6 | 9.1 | 9.2 | 5.2 | 129 | 7.6 | 144 | 24.854 | 216.4 | 0.00 |
| 2026-05-02 17:25 | 70.5 | 9.0 | 9.0 | 5.3 | 100 | 8.9 | 125 | 24.856 | 231.9 | 0.00 |
| 2026-05-02 17:20 | 70.7 | 9.1 | 9.4 | 7.2 | 140 | 11.0 | 144 | 24.858 | 244.1 | 0.00 |
| 2026-05-02 17:15 | 71.1 | 9.0 | 9.5 | 6.0 | 157 | 8.8 | 156 | 24.859 | 261.6 | 0.00 |
| 2026-05-02 17:10 | 71.3 | 9.1 | 9.9 | 5.2 | 147 | 6.6 | 148 | 24.860 | 276.1 | 0.00 |
| 2026-05-02 17:05 | 71.1 | 10.1 | 12.0 | 5.3 | 151 | 7.2 | 196 | 24.860 | 287.8 | 0.00 |
| 2026-05-02 17:00 | 71.3 | 9.6 | 10.9 | 6.5 | 168 | 8.7 | 170 | 24.860 | 305.4 | 0.00 |
| Date Time MST |
Temp °C |
RH % |
DewPt °C |
Wind m/s |
Dir ° |
Gust m/s |
Dir ° |
Press hPa |
Solar W/m^2 |
Prec mm |
|---|---|---|---|---|---|---|---|---|---|---|
| 2026-05-02 19:25 | 16.2 | 14.3 | -11.1 | 1.6 | 186 | 2.0 | 178 | 841.40 | 0.2 | 0.00 |
| 2026-05-02 19:20 | 16.4 | 14.4 | -10.8 | 1.6 | 165 | 2.2 | 183 | 841.36 | 0.3 | 0.00 |
| 2026-05-02 19:15 | 16.6 | 14.2 | -10.8 | 2.0 | 177 | 2.8 | 176 | 841.33 | 0.5 | 0.00 |
| 2026-05-02 19:10 | 16.8 | 14.4 | -10.5 | 2.3 | 180 | 3.1 | 183 | 841.30 | 1.0 | 0.00 |
| 2026-05-02 19:05 | 17.1 | 14.0 | -10.6 | 2.4 | 192 | 3.2 | 187 | 841.28 | 1.7 | 0.00 |
| 2026-05-02 19:00 | 17.3 | 13.5 | -10.9 | 1.9 | 197 | 3.0 | 184 | 841.34 | 2.8 | 0.00 |
| 2026-05-02 18:55 | 17.5 | 13.9 | -10.3 | 1.7 | 199 | 2.6 | 209 | 841.36 | 4.1 | 0.00 |
| 2026-05-02 18:50 | 17.8 | 13.5 | -10.6 | 1.9 | 211 | 2.8 | 196 | 841.28 | 5.7 | 0.00 |
| 2026-05-02 18:45 | 18.2 | 13.3 | -10.4 | 1.6 | 191 | 2.6 | 196 | 841.25 | 8.2 | 0.00 |
| 2026-05-02 18:40 | 18.8 | 11.8 | -11.4 | 1.8 | 186 | 2.5 | 163 | 841.21 | 11.3 | 0.00 |
| 2026-05-02 18:35 | 19.2 | 10.8 | -12.1 | 2.7 | 161 | 3.3 | 143 | 841.21 | 17.2 | 0.00 |
| 2026-05-02 18:30 | 19.4 | 10.6 | -12.3 | 2.6 | 154 | 3.7 | 152 | 841.20 | 31.5 | 0.00 |
| 2026-05-02 18:25 | 19.7 | 10.6 | -12.1 | 2.1 | 156 | 2.9 | 149 | 841.28 | 20.1 | 0.00 |
| 2026-05-02 18:20 | 20.1 | 10.5 | -11.9 | 2.2 | 160 | 3.2 | 165 | 841.42 | 55.0 | 0.00 |
| 2026-05-02 18:15 | 20.2 | 10.3 | -12.0 | 2.3 | 193 | 3.2 | 167 | 841.41 | 73.7 | 0.00 |
| 2026-05-02 18:10 | 20.3 | 10.2 | -12.2 | 2.3 | 177 | 3.5 | 167 | 841.41 | 62.1 | 0.00 |
| 2026-05-02 18:05 | 20.5 | 10.1 | -12.1 | 2.8 | 160 | 3.9 | 158 | 841.39 | 48.0 | 0.00 |
| 2026-05-02 18:00 | 20.8 | 10.1 | -11.9 | 3.3 | 157 | 4.3 | 158 | 841.41 | 130.7 | 0.00 |
| 2026-05-02 17:55 | 20.9 | 9.9 | -12.0 | 3.2 | 166 | 4.9 | 166 | 841.47 | 143.0 | 0.00 |
| 2026-05-02 17:50 | 21.0 | 9.6 | -12.4 | 3.5 | 156 | 4.4 | 163 | 841.58 | 160.9 | 0.00 |
| 2026-05-02 17:45 | 21.0 | 9.8 | -12.1 | 3.3 | 192 | 4.5 | 144 | 841.61 | 174.5 | 0.00 |
| 2026-05-02 17:40 | 21.2 | 9.2 | -12.7 | 3.1 | 146 | 4.2 | 152 | 841.62 | 188.7 | 0.00 |
| 2026-05-02 17:35 | 21.4 | 9.0 | -12.7 | 2.2 | 156 | 3.4 | 146 | 841.63 | 207.7 | 0.00 |
| 2026-05-02 17:30 | 21.4 | 9.1 | -12.7 | 2.3 | 129 | 3.4 | 144 | 841.64 | 216.4 | 0.00 |
| 2026-05-02 17:25 | 21.4 | 9.0 | -12.8 | 2.4 | 100 | 4.0 | 125 | 841.73 | 231.9 | 0.00 |
| 2026-05-02 17:20 | 21.5 | 9.1 | -12.5 | 3.2 | 140 | 4.9 | 144 | 841.77 | 244.1 | 0.00 |
| 2026-05-02 17:15 | 21.7 | 9.0 | -12.5 | 2.7 | 157 | 3.9 | 156 | 841.82 | 261.6 | 0.00 |
| 2026-05-02 17:10 | 21.8 | 9.1 | -12.3 | 2.3 | 147 | 3.0 | 148 | 841.86 | 276.1 | 0.00 |
| 2026-05-02 17:05 | 21.7 | 10.1 | -11.1 | 2.4 | 151 | 3.2 | 196 | 841.86 | 287.8 | 0.00 |
| 2026-05-02 17:00 | 21.9 | 9.6 | -11.7 | 2.9 | 168 | 3.9 | 170 | 841.86 | 305.4 | 0.00 |

Sr Research Associate
Cooperative Institute for Research in the Atmosphere
Colorado State University
1375 Campus Delivery
Fort Collins, CO 80523-1375